Terminal Aerodrome Forecast
Issued by NWS Charleston, WV

Home | Current Version | Previous Version | Text Only | Print | Product List | Glossary On
Versions: 1 2 3 4 5 6 7 8 9 10 11 12 13 14 15 16 17 18 19 20 21 22 23 24 25
000
FTUS41 KRLX 281000 AAB
TAFBKW
TAF AMD
KBKW 281030Z 2811/2906 23006KT 6SM -SHRA BR BKN025 OVC030
     FM281500 VRB03KT 3SM -SHRA BR OVC015
     FM282000 VRB03KT 2SM -SHRA BR OVC008
     FM290000 VRB03KT 1 1/2SM -RA BR OVC008
     FM290200 VRB03KT 3SM -RA BR OVC008=

USA.gov is the U.S. government's official web portal to all federal, state and local government web resources and services.